sensor_id;sensor_type;location;lat;lon;timestamp;pressure;altitude;pressure_sealevel;temperature;humidity
42111;BME280;27766;52.174;5.456;2023-06-26T00:01:41;101117.81;;;23.59;nan
42111;BME280;27766;52.174;5.456;2023-06-26T00:04:10;101117.97;;;23.54;nan
42111;BME280;27766;52.174;5.456;2023-06-26T00:06:41;101110.41;;;23.42;nan
42111;BME280;27766;52.174;5.456;2023-06-26T00:09:09;101112.25;;;23.39;nan
42111;BME280;27766;52.174;5.456;2023-06-26T00:11:36;101103.66;;;23.33;nan
42111;BME280;27766;52.174;5.456;2023-06-26T00:14:04;101102.03;;;23.29;nan
42111;BME280;27766;52.174;5.456;2023-06-26T00:16:31;101111.69;;;23.28;nan
42111;BME280;27766;52.174;5.456;2023-06-26T00:18:59;101113.53;;;23.26;nan
42111;BME280;27766;52.174;5.456;2023-06-26T00:21:26;101108.34;;;23.23;nan
42111;BME280;27766;52.174;5.456;2023-06-26T00:23:54;101114.59;;;23.20;nan
42111;BME280;27766;52.174;5.456;2023-06-26T00:26:21;101112.06;;;23.16;nan
42111;BME280;27766;52.174;5.456;2023-06-26T00:28:48;101111.16;;;23.17;nan
42111;BME280;27766;52.174;5.456;2023-06-26T00:31:16;101112.91;;;23.16;nan
42111;BME280;27766;52.174;5.456;2023-06-26T00:33:43;101103.22;;;23.17;nan
42111;BME280;27766;52.174;5.456;2023-06-26T00:36:10;101099.72;;;23.18;nan
42111;BME280;27766;52.174;5.456;2023-06-26T00:38:38;101101.41;;;23.19;nan
42111;BME280;27766;52.174;5.456;2023-06-26T00:41:05;101091.69;;;23.21;nan
42111;BME280;27766;52.174;5.456;2023-06-26T00:43:39;101089.16;;;23.18;nan
42111;BME280;27766;52.174;5.456;2023-06-26T00:46:12;101089.16;;;23.18;nan
42111;BME280;27766;52.174;5.456;2023-06-26T00:48:42;101084.78;;;23.15;nan
42111;BME280;27766;52.174;5.456;2023-06-26T00:51:12;101089.16;;;23.16;nan
42111;BME280;27766;52.174;5.456;2023-06-26T00:53:39;101085.75;;;23.13;nan
42111;BME280;27766;52.174;5.456;2023-06-26T00:56:10;101075.28;;;23.10;nan
42111;BME280;27766;52.174;5.456;2023-06-26T00:58:37;101079.94;;;23.01;nan
42111;BME280;27766;52.174;5.456;2023-06-26T01:01:04;101074.09;;;22.90;nan
42111;BME280;27766;52.174;5.456;2023-06-26T01:03:35;101092.56;;;22.90;nan
42111;BME280;27766;52.174;5.456;2023-06-26T01:06:07;101089.28;;;22.83;nan
42111;BME280;27766;52.174;5.456;2023-06-26T01:08:36;101089.41;;;22.79;nan
42111;BME280;27766;52.174;5.456;2023-06-26T01:11:04;101092.13;;;22.75;nan
42111;BME280;27766;52.174;5.456;2023-06-26T01:13:32;101092.19;;;22.72;nan
42111;BME280;27766;52.174;5.456;2023-06-26T01:16:01;101093.38;;;22.62;nan
42111;BME280;27766;52.174;5.456;2023-06-26T01:18:29;101103.84;;;22.65;nan
42111;BME280;27766;52.174;5.456;2023-06-26T01:20:58;101104.72;;;22.66;nan
42111;BME280;27766;52.174;5.456;2023-06-26T01:26:21;101109.09;;;22.67;nan
42111;BME280;27766;52.174;5.456;2023-06-26T01:28:51;101109.09;;;22.65;nan
42111;BME280;27766;52.174;5.456;2023-06-26T01:31:20;101119.66;;;22.65;nan
42111;BME280;27766;52.174;5.456;2023-06-26T01:33:49;101116.94;;;22.68;nan
42111;BME280;27766;52.174;5.456;2023-06-26T01:36:17;101126.28;;;22.80;nan
42111;BME280;27766;52.174;5.456;2023-06-26T01:38:44;101129.69;;;22.84;nan
42111;BME280;27766;52.174;5.456;2023-06-26T01:41:11;101140.13;;;22.88;nan
42111;BME280;27766;52.174;5.456;2023-06-26T01:46:40;101139.22;;;22.89;nan
42111;BME280;27766;52.174;5.456;2023-06-26T01:51:47;101134.50;;;22.69;nan
42111;BME280;27766;52.174;5.456;2023-06-26T01:54:21;101143.41;;;22.65;nan
42111;BME280;27766;52.174;5.456;2023-06-26T01:56:52;101144.00;;;22.43;nan
42111;BME280;27766;52.174;5.456;2023-06-26T01:59:21;101152.03;;;22.39;nan
42111;BME280;27766;52.174;5.456;2023-06-26T02:01:49;101133.75;;;22.31;nan
42111;BME280;27766;52.174;5.456;2023-06-26T02:04:17;101142.00;;;22.17;nan
42111;BME280;27766;52.174;5.456;2023-06-26T02:06:44;101142.28;;;22.06;nan
42111;BME280;27766;52.174;5.456;2023-06-26T02:09:11;101142.91;;;22.16;nan
42111;BME280;27766;52.174;5.456;2023-06-26T02:11:39;101137.06;;;22.03;nan
42111;BME280;27766;52.174;5.456;2023-06-26T02:14:06;101146.66;;;22.07;nan
42111;BME280;27766;52.174;5.456;2023-06-26T02:16:36;101145.13;;;21.97;nan
42111;BME280;27766;52.174;5.456;2023-06-26T02:19:05;101150.56;;;21.91;nan
42111;BME280;27766;52.174;5.456;2023-06-26T02:21:32;101149.88;;;21.82;nan
42111;BME280;27766;52.174;5.456;2023-06-26T02:24:00;101151.09;;;21.69;nan
42111;BME280;27766;52.174;5.456;2023-06-26T02:26:27;101148.56;;;21.64;nan
42111;BME280;27766;52.174;5.456;2023-06-26T02:28:55;101151.09;;;21.69;nan
42111;BME280;27766;52.174;5.456;2023-06-26T02:31:22;101153.78;;;21.66;nan
42111;BME280;27766;52.174;5.456;2023-06-26T02:33:49;101145.19;;;21.56;nan
42111;BME280;27766;52.174;5.456;2023-06-26T02:36:17;101149.63;;;21.56;nan
42111;BME280;27766;52.174;5.456;2023-06-26T02:38:44;101146.16;;;21.54;nan
42111;BME280;27766;52.174;5.456;2023-06-26T02:41:11;101143.81;;;21.41;nan
42111;BME280;27766;52.174;5.456;2023-06-26T02:43:39;101147.44;;;21.35;nan
42111;BME280;27766;52.174;5.456;2023-06-26T02:46:06;101163.38;;;21.28;nan
42111;BME280;27766;52.174;5.456;2023-06-26T02:48:33;101154.44;;;21.37;nan
42111;BME280;27766;52.174;5.456;2023-06-26T02:51:01;101150.25;;;21.26;nan
42111;BME280;27766;52.174;5.456;2023-06-26T02:53:28;101166.72;;;21.36;nan
42111;BME280;27766;52.174;5.456;2023-06-26T02:55:55;101148.56;;;21.24;nan
42111;BME280;27766;52.174;5.456;2023-06-26T02:58:22;101152.09;;;21.23;nan
42111;BME280;27766;52.174;5.456;2023-06-26T03:00:49;101158.34;;;21.17;nan
42111;BME280;27766;52.174;5.456;2023-06-26T03:03:17;101175.03;;;21.16;nan
42111;BME280;27766;52.174;5.456;2023-06-26T03:05:44;101175.25;;;21.05;nan
42111;BME280;27766;52.174;5.456;2023-06-26T03:08:12;101163.88;;;21.05;nan
42111;BME280;27766;52.174;5.456;2023-06-26T03:10:39;101155.31;;;20.95;nan
42111;BME280;27766;52.174;5.456;2023-06-26T03:13:07;101156.03;;;21.03;nan
42111;BME280;27766;52.174;5.456;2023-06-26T03:15:34;101163.97;;;21.00;nan
42111;BME280;27766;52.174;5.456;2023-06-26T03:18:02;101161.19;;;21.06;nan
42111;BME280;27766;52.174;5.456;2023-06-26T03:20:29;101171.72;;;21.06;nan
42111;BME280;27766;52.174;5.456;2023-06-26T03:22:56;101181.63;;;20.95;nan
42111;BME280;27766;52.174;5.456;2023-06-26T03:25:24;101179.09;;;20.88;nan
42111;BME280;27766;52.174;5.456;2023-06-26T03:27:51;101181.06;;;20.77;nan
42111;BME280;27766;52.174;5.456;2023-06-26T03:30:18;101180.19;;;20.77;nan
42111;BME280;27766;52.174;5.456;2023-06-26T03:32:46;101172.41;;;20.69;nan
42111;BME280;27766;52.174;5.456;2023-06-26T03:35:13;101183.78;;;20.73;nan
42111;BME280;27766;52.174;5.456;2023-06-26T03:37:40;101188.31;;;20.63;nan
42111;BME280;27766;52.174;5.456;2023-06-26T03:40:08;101181.28;;;20.63;nan
42111;BME280;27766;52.174;5.456;2023-06-26T03:42:36;101183.91;;;20.65;nan
42111;BME280;27766;52.174;5.456;2023-06-26T03:45:04;101179.63;;;20.58;nan
42111;BME280;27766;52.174;5.456;2023-06-26T03:47:31;101194.72;;;20.48;nan
42111;BME280;27766;52.174;5.456;2023-06-26T03:49:58;101197.41;;;20.43;nan
42111;BME280;27766;52.174;5.456;2023-06-26T03:52:26;101194.00;;;20.38;nan
42111;BME280;27766;52.174;5.456;2023-06-26T03:54:53;101197.38;;;20.46;nan
42111;BME280;27766;52.174;5.456;2023-06-26T03:57:20;101204.47;;;20.41;nan
42111;BME280;27766;52.174;5.456;2023-06-26T03:59:48;101201.94;;;20.36;nan
42111;BME280;27766;52.174;5.456;2023-06-26T04:02:15;101207.38;;;20.24;nan
42111;BME280;27766;52.174;5.456;2023-06-26T04:04:49;101218.81;;;20.21;nan
42111;BME280;27766;52.174;5.456;2023-06-26T04:07:17;101217.88;;;20.26;nan
42111;BME280;27766;52.174;5.456;2023-06-26T04:09:45;101232.00;;;20.18;nan
42111;BME280;27766;52.174;5.456;2023-06-26T04:12:13;101224.31;;;20.07;nan
42111;BME280;27766;52.174;5.456;2023-06-26T04:14:41;101229.63;;;20.03;nan
42111;BME280;27766;52.174;5.456;2023-06-26T04:17:10;101226.16;;;20.01;nan
42111;BME280;27766;52.174;5.456;2023-06-26T04:19:37;101236.66;;;20.01;nan
42111;BME280;27766;52.174;5.456;2023-06-26T04:22:04;101235.97;;;19.88;nan
42111;BME280;27766;52.174;5.456;2023-06-26T04:24:32;101239.50;;;19.82;nan
42111;BME280;27766;52.174;5.456;2023-06-26T04:26:59;101243.03;;;19.80;nan
42111;BME280;27766;52.174;5.456;2023-06-26T04:29:27;101246.63;;;19.75;nan
42111;BME280;27766;52.174;5.456;2023-06-26T04:31:54;101236.97;;;19.76;nan
42111;BME280;27766;52.174;5.456;2023-06-26T04:34:26;101244.81;;;19.77;nan
42111;BME280;27766;52.174;5.456;2023-06-26T04:36:54;101240.44;;;19.78;nan
42111;BME280;27766;52.174;5.456;2023-06-26T04:39:21;101248.25;;;19.83;nan
42111;BME280;27766;52.174;5.456;2023-06-26T04:41:49;101242.88;;;19.93;nan
42111;BME280;27766;52.174;5.456;2023-06-26T04:44:16;101249.84;;;19.96;nan
42111;BME280;27766;52.174;5.456;2023-06-26T04:46:47;101249.06;;;19.91;nan
42111;BME280;27766;52.174;5.456;2023-06-26T04:49:14;101259.63;;;19.86;nan
42111;BME280;27766;52.174;5.456;2023-06-26T04:51:44;101257.94;;;19.79;nan
42111;BME280;27766;52.174;5.456;2023-06-26T04:54:12;101268.38;;;19.85;nan
42111;BME280;27766;52.174;5.456;2023-06-26T04:56:39;101278.94;;;19.77;nan
42111;BME280;27766;52.174;5.456;2023-06-26T04:59:07;101285.97;;;19.77;nan
42111;BME280;27766;52.174;5.456;2023-06-26T05:01:40;101284.28;;;19.73;nan
42111;BME280;27766;52.174;5.456;2023-06-26T05:04:08;101279.19;;;19.60;nan
42111;BME280;27766;52.174;5.456;2023-06-26T05:06:35;101285.31;;;19.59;nan
42111;BME280;27766;52.174;5.456;2023-06-26T05:09:03;101287.06;;;19.60;nan
42111;BME280;27766;52.174;5.456;2023-06-26T05:11:30;101286.03;;;19.72;nan
42111;BME280;27766;52.174;5.456;2023-06-26T05:13:57;101298.19;;;19.80;nan
42111;BME280;27766;52.174;5.456;2023-06-26T05:16:25;101285.09;;;19.78;nan
42111;BME280;27766;52.174;5.456;2023-06-26T05:18:52;101292.16;;;19.71;nan
42111;BME280;27766;52.174;5.456;2023-06-26T05:21:21;101290.44;;;19.72;nan
42111;BME280;27766;52.174;5.456;2023-06-26T05:23:52;101279.00;;;19.74;nan
42111;BME280;27766;52.174;5.456;2023-06-26T05:26:23;101304.06;;;20.00;nan
42111;BME280;27766;52.174;5.456;2023-06-26T05:28:50;101304.97;;;19.98;nan
42111;BME280;27766;52.174;5.456;2023-06-26T05:31:18;101313.63;;;20.06;nan
42111;BME280;27766;52.174;5.456;2023-06-26T05:33:49;101314.47;;;20.11;nan
42111;BME280;27766;52.174;5.456;2023-06-26T05:36:18;101318.03;;;20.04;nan
42111;BME280;27766;52.174;5.456;2023-06-26T05:38:49;101307.66;;;19.95;nan
42111;BME280;27766;52.174;5.456;2023-06-26T05:41:17;101321.69;;;19.93;nan
42111;BME280;27766;52.174;5.456;2023-06-26T05:43:45;101319.97;;;19.89;nan
42111;BME280;27766;52.174;5.456;2023-06-26T05:46:12;101322.53;;;19.94;nan
42111;BME280;27766;52.174;5.456;2023-06-26T05:48:40;101331.28;;;19.96;nan
42111;BME280;27766;52.174;5.456;2023-06-26T05:51:08;101323.38;;;19.98;nan
42111;BME280;27766;52.174;5.456;2023-06-26T05:53:35;101337.22;;;20.11;nan
42111;BME280;27766;52.174;5.456;2023-06-26T05:56:03;101337.19;;;20.14;nan
42111;BME280;27766;52.174;5.456;2023-06-26T05:58:30;101339.75;;;20.18;nan
42111;BME280;27766;52.174;5.456;2023-06-26T06:00:58;101344.00;;;20.27;nan
42111;BME280;27766;52.174;5.456;2023-06-26T06:03:26;101351.78;;;20.33;nan
42111;BME280;27766;52.174;5.456;2023-06-26T06:05:53;101357.00;;;20.35;nan
42111;BME280;27766;52.174;5.456;2023-06-26T06:08:20;101369.13;;;20.45;nan
42111;BME280;27766;52.174;5.456;2023-06-26T06:10:48;101364.50;;;20.63;nan
42111;BME280;27766;52.174;5.456;2023-06-26T06:13:15;101374.19;;;20.58;nan
42111;BME280;27766;52.174;5.456;2023-06-26T06:15:42;101371.56;;;20.58;nan
42111;BME280;27766;52.174;5.456;2023-06-26T06:18:10;101380.44;;;20.50;nan
42111;BME280;27766;52.174;5.456;2023-06-26T06:20:37;101384.72;;;20.58;nan
42111;BME280;27766;52.174;5.456;2023-06-26T06:23:05;101382.84;;;20.66;nan
42111;BME280;27766;52.174;5.456;2023-06-26T06:25:33;101386.47;;;20.60;nan
42111;BME280;27766;52.174;5.456;2023-06-26T06:28:00;101390.66;;;20.74;nan
42111;BME280;27766;52.174;5.456;2023-06-26T06:30:27;101400.47;;;20.61;nan
42111;BME280;27766;52.174;5.456;2023-06-26T06:33:01;101401.41;;;20.55;nan
42111;BME280;27766;52.174;5.456;2023-06-26T06:35:28;101399.69;;;20.55;nan
42111;BME280;27766;52.174;5.456;2023-06-26T06:37:56;101404.84;;;20.62;nan
42111;BME280;27766;52.174;5.456;2023-06-26T06:40:24;101418.94;;;20.56;nan
42111;BME280;27766;52.174;5.456;2023-06-26T06:42:52;101422.22;;;20.72;nan
42111;BME280;27766;52.174;5.456;2023-06-26T06:45:20;101435.25;;;20.83;nan
42111;BME280;27766;52.174;5.456;2023-06-26T06:47:47;101432.75;;;20.72;nan
42111;BME280;27766;52.174;5.456;2023-06-26T06:50:14;101431.78;;;20.79;nan
42111;BME280;27766;52.174;5.456;2023-06-26T06:52:43;101438.44;;;21.02;nan
42111;BME280;27766;52.174;5.456;2023-06-26T06:55:10;101450.72;;;21.03;nan
42111;BME280;27766;52.174;5.456;2023-06-26T06:57:39;101447.13;;;21.07;nan
42111;BME280;27766;52.174;5.456;2023-06-26T07:00:12;101451.53;;;21.05;nan
42111;BME280;27766;52.174;5.456;2023-06-26T07:02:43;101443.88;;;20.90;nan
42111;BME280;27766;52.174;5.456;2023-06-26T07:05:12;101446.59;;;20.85;nan
42111;BME280;27766;52.174;5.456;2023-06-26T07:07:39;101452.00;;;20.76;nan
42111;BME280;27766;52.174;5.456;2023-06-26T07:10:12;101456.53;;;20.63;nan
42111;BME280;27766;52.174;5.456;2023-06-26T07:12:39;101460.91;;;20.64;nan
42111;BME280;27766;52.174;5.456;2023-06-26T07:15:07;101453.84;;;20.66;nan
42111;BME280;27766;52.174;5.456;2023-06-26T07:17:34;101466.00;;;20.76;nan
42111;BME280;27766;52.174;5.456;2023-06-26T07:20:03;101465.69;;;20.98;nan
42111;BME280;27766;52.174;5.456;2023-06-26T07:22:36;101480.34;;;21.14;nan
42111;BME280;27766;52.174;5.456;2023-06-26T07:25:04;101463.38;;;21.32;nan
42111;BME280;27766;52.174;5.456;2023-06-26T07:27:32;101484.94;;;21.01;nan
42111;BME280;27766;52.174;5.456;2023-06-26T07:30:00;101482.56;;;20.84;nan
42111;BME280;27766;52.174;5.456;2023-06-26T07:32:28;101471.78;;;21.03;nan
42111;BME280;27766;52.174;5.456;2023-06-26T07:34:56;101486.75;;;20.99;nan
42111;BME280;27766;52.174;5.456;2023-06-26T07:37:23;101483.41;;;20.85;nan
42111;BME280;27766;52.174;5.456;2023-06-26T07:39:50;101488.50;;;20.96;nan
42111;BME280;27766;52.174;5.456;2023-06-26T07:42:18;101480.56;;;21.02;nan
42111;BME280;27766;52.174;5.456;2023-06-26T07:44:45;101487.22;;;21.25;nan
42111;BME280;27766;52.174;5.456;2023-06-26T07:47:15;101504.44;;;21.44;nan
42111;BME280;27766;52.174;5.456;2023-06-26T07:49:42;101501.91;;;21.38;nan
42111;BME280;27766;52.174;5.456;2023-06-26T07:52:09;101504.19;;;21.03;nan
42111;BME280;27766;52.174;5.456;2023-06-26T07:54:38;101503.38;;;21.00;nan
42111;BME280;27766;52.174;5.456;2023-06-26T07:57:05;101503.34;;;21.03;nan
42111;BME280;27766;52.174;5.456;2023-06-26T07:59:36;101516.03;;;21.32;nan
42111;BME280;27766;52.174;5.456;2023-06-26T08:02:03;101511.13;;;21.65;nan
42111;BME280;27766;52.174;5.456;2023-06-26T08:04:31;101510.97;;;21.73;nan
42111;BME280;27766;52.174;5.456;2023-06-26T08:07:00;101514.53;;;21.17;nan
42111;BME280;27766;52.174;5.456;2023-06-26T08:09:29;101503.81;;;21.27;nan
42111;BME280;27766;52.174;5.456;2023-06-26T08:11:57;101500.06;;;21.45;nan
42111;BME280;27766;52.174;5.456;2023-06-26T08:14:24;101515.69;;;21.53;nan
42111;BME280;27766;52.174;5.456;2023-06-26T08:16:52;101507.38;;;21.24;nan
42111;BME280;27766;52.174;5.456;2023-06-26T08:19:19;101507.47;;;21.18;nan
42111;BME280;27766;52.174;5.456;2023-06-26T08:21:47;101519.06;;;21.62;nan
42111;BME280;27766;52.174;5.456;2023-06-26T08:24:14;101522.53;;;21.66;nan
42111;BME280;27766;52.174;5.456;2023-06-26T08:26:49;101522.41;;;21.74;nan
42111;BME280;27766;52.174;5.456;2023-06-26T08:29:17;101526.44;;;21.40;nan
42111;BME280;27766;52.174;5.456;2023-06-26T08:31:44;101529.69;;;21.56;nan
42111;BME280;27766;52.174;5.456;2023-06-26T08:34:12;101527.44;;;21.86;nan
42111;BME280;27766;52.174;5.456;2023-06-26T08:36:39;101519.84;;;22.16;nan
42111;BME280;27766;52.174;5.456;2023-06-26T08:39:06;101536.19;;;21.88;nan
42111;BME280;27766;52.174;5.456;2023-06-26T08:41:35;101530.97;;;21.85;nan
42111;BME280;27766;52.174;5.456;2023-06-26T08:44:03;101539.50;;;21.46;nan
42111;BME280;27766;52.174;5.456;2023-06-26T08:46:31;101539.41;;;21.53;nan
42111;BME280;27766;52.174;5.456;2023-06-26T08:49:42;101543.41;;;21.78;nan
42111;BME280;27766;52.174;5.456;2023-06-26T08:52:22;101557.63;;;21.68;nan
42111;BME280;27766;52.174;5.456;2023-06-26T08:54:55;101548.22;;;21.50;nan
42111;BME280;27766;52.174;5.456;2023-06-26T08:57:23;101548.94;;;21.63;nan
42111;BME280;27766;52.174;5.456;2023-06-26T08:59:52;101563.13;;;21.49;nan
42111;BME280;27766;52.174;5.456;2023-06-26T09:02:19;101560.03;;;21.24;nan
42111;BME280;27766;52.174;5.456;2023-06-26T09:04:48;101559.28;;;21.17;nan
42111;BME280;27766;52.174;5.456;2023-06-26T09:07:18;101575.06;;;21.17;nan
42111;BME280;27766;52.174;5.456;2023-06-26T09:09:46;101581.78;;;21.37;nan
42111;BME280;27766;52.174;5.456;2023-06-26T09:12:20;101577.84;;;21.66;nan
42111;BME280;27766;52.174;5.456;2023-06-26T09:14:47;101583.16;;;21.63;nan
42111;BME280;27766;52.174;5.456;2023-06-26T09:17:15;101577.47;;;21.89;nan
42111;BME280;27766;52.174;5.456;2023-06-26T09:19:45;101594.94;;;21.37;nan
42111;BME280;27766;52.174;5.456;2023-06-26T09:22:14;101601.53;;;21.05;nan
42111;BME280;27766;52.174;5.456;2023-06-26T09:24:43;101604.63;;;21.35;nan
42111;BME280;27766;52.174;5.456;2023-06-26T09:27:11;101591.06;;;21.61;nan
42111;BME280;27766;52.174;5.456;2023-06-26T09:29:38;101600.78;;;21.58;nan
42111;BME280;27766;52.174;5.456;2023-06-26T09:32:08;101606.13;;;21.51;nan
42111;BME280;27766;52.174;5.456;2023-06-26T09:34:36;101603.00;;;21.84;nan
42111;BME280;27766;52.174;5.456;2023-06-26T09:37:08;101616.41;;;21.69;nan
42111;BME280;27766;52.174;5.456;2023-06-26T09:39:35;101611.44;;;21.50;nan
42111;BME280;27766;52.174;5.456;2023-06-26T09:42:03;101621.94;;;20.89;nan
42111;BME280;27766;52.174;5.456;2023-06-26T09:44:33;101616.28;;;21.17;nan
42111;BME280;27766;52.174;5.456;2023-06-26T09:47:02;101605.25;;;21.53;nan
42111;BME280;27766;52.174;5.456;2023-06-26T09:49:31;101619.88;;;21.74;nan
42111;BME280;27766;52.174;5.456;2023-06-26T09:51:59;101628.72;;;21.68;nan
42111;BME280;27766;52.174;5.456;2023-06-26T09:54:27;101625.81;;;21.85;nan
42111;BME280;27766;52.174;5.456;2023-06-26T09:57:07;101634.88;;;21.67;nan
42111;BME280;27766;52.174;5.456;2023-06-26T09:59:35;101639.28;;;21.68;nan
42111;BME280;27766;52.174;5.456;2023-06-26T10:02:03;101653.75;;;21.38;nan
42111;BME280;27766;52.174;5.456;2023-06-26T10:04:30;101649.38;;;21.37;nan
42111;BME280;27766;52.174;5.456;2023-06-26T10:07:06;101646.41;;;21.60;nan
42111;BME280;27766;52.174;5.456;2023-06-26T10:09:38;101645.91;;;21.94;nan
42111;BME280;27766;52.174;5.456;2023-06-26T10:12:17;101637.31;;;21.81;nan
42111;BME280;27766;52.174;5.456;2023-06-26T10:14:45;101649.56;;;21.84;nan
42111;BME280;27766;52.174;5.456;2023-06-26T10:17:19;101674.50;;;21.61;nan
42111;BME280;27766;52.174;5.456;2023-06-26T10:19:48;101668.31;;;21.63;nan
42111;BME280;27766;52.174;5.456;2023-06-26T10:22:20;101662.22;;;22.14;nan
42111;BME280;27766;52.174;5.456;2023-06-26T10:24:49;101644.44;;;22.27;nan
42111;BME280;27766;52.174;5.456;2023-06-26T10:27:19;101664.19;;;22.55;nan
42111;BME280;27766;52.174;5.456;2023-06-26T10:29:53;101677.19;;;22.12;nan
42111;BME280;27766;52.174;5.456;2023-06-26T10:32:22;101663.03;;;22.18;nan
42111;BME280;27766;52.174;5.456;2023-06-26T10:34:51;101663.50;;;22.45;nan
42111;BME280;27766;52.174;5.456;2023-06-26T10:37:19;101681.59;;;22.12;nan
42111;BME280;27766;52.174;5.456;2023-06-26T10:39:49;101679.25;;;21.93;nan
42111;BME280;27766;52.174;5.456;2023-06-26T10:42:18;101688.28;;;21.77;nan
42111;BME280;27766;52.174;5.456;2023-06-26T10:44:47;101676.59;;;21.96;nan
42111;BME280;27766;52.174;5.456;2023-06-26T10:47:30;101678.41;;;21.93;nan
42111;BME280;27766;52.174;5.456;2023-06-26T10:50:27;101668.81;;;22.42;nan
42111;BME280;27766;52.174;5.456;2023-06-26T10:53:30;101680.22;;;22.44;nan
42111;BME280;27766;52.174;5.456;2023-06-26T10:56:04;101678.09;;;22.63;nan
42111;BME280;27766;52.174;5.456;2023-06-26T11:03:38;101686.94;;;22.59;nan
42111;BME280;27766;52.174;5.456;2023-06-26T11:06:24;101698.38;;;22.58;nan
42111;BME280;27766;52.174;5.456;2023-06-26T11:09:00;101687.22;;;22.43;nan
42111;BME280;27766;52.174;5.456;2023-06-26T11:14:26;101715.06;;;22.60;nan
42111;BME280;27766;52.174;5.456;2023-06-26T11:16:57;101696.97;;;22.40;nan
42111;BME280;27766;52.174;5.456;2023-06-26T11:19:26;101699.41;;;22.51;nan
42111;BME280;27766;52.174;5.456;2023-06-26T11:22:06;101710.09;;;22.43;nan
42111;BME280;27766;52.174;5.456;2023-06-26T11:24:34;101704.56;;;22.58;nan
42111;BME280;27766;52.174;5.456;2023-06-26T11:27:04;101723.03;;;22.58;nan
42111;BME280;27766;52.174;5.456;2023-06-26T11:29:32;101727.50;;;22.53;nan
42111;BME280;27766;52.174;5.456;2023-06-26T11:32:02;101723.53;;;22.77;nan
42111;BME280;27766;52.174;5.456;2023-06-26T11:34:32;101726.38;;;22.67;nan
42111;BME280;27766;52.174;5.456;2023-06-26T11:36:59;101724.41;;;22.78;nan
42111;BME280;27766;52.174;5.456;2023-06-26T11:39:30;101726.66;;;22.51;nan
42111;BME280;27766;52.174;5.456;2023-06-26T11:41:59;101727.31;;;22.64;nan
42111;BME280;27766;52.174;5.456;2023-06-26T11:44:29;101739.13;;;22.90;nan
42111;BME280;27766;52.174;5.456;2023-06-26T11:46:57;101739.59;;;22.65;nan
42111;BME280;27766;52.174;5.456;2023-06-26T11:49:25;101736.47;;;23.35;nan
42111;BME280;27766;52.174;5.456;2023-06-26T11:51:53;101746.03;;;23.82;nan
42111;BME280;27766;52.174;5.456;2023-06-26T11:54:27;101764.72;;;23.74;nan
42111;BME280;27766;52.174;5.456;2023-06-26T11:56:55;101755.53;;;23.91;nan
42111;BME280;27766;52.174;5.456;2023-06-26T11:59:24;101757.28;;;23.90;nan
42111;BME280;27766;52.174;5.456;2023-06-26T12:01:52;101768.63;;;24.33;nan
42111;BME280;27766;52.174;5.456;2023-06-26T12:04:20;101768.53;;;24.38;nan
42111;BME280;27766;52.174;5.456;2023-06-26T12:06:50;101762.09;;;24.48;nan
42111;BME280;27766;52.174;5.456;2023-06-26T12:09:18;101768.69;;;24.64;nan
42111;BME280;27766;52.174;5.456;2023-06-26T12:11:48;101786.00;;;24.79;nan
42111;BME280;27766;52.174;5.456;2023-06-26T12:14:19;101782.31;;;24.50;nan
42111;BME280;27766;52.174;5.456;2023-06-26T12:16:47;101770.69;;;24.56;nan
42111;BME280;27766;52.174;5.456;2023-06-26T12:19:15;101777.16;;;24.10;nan
42111;BME280;27766;52.174;5.456;2023-06-26T12:21:49;101796.69;;;24.02;nan
42111;BME280;27766;52.174;5.456;2023-06-26T12:24:20;101799.94;;;23.75;nan
42111;BME280;27766;52.174;5.456;2023-06-26T12:26:51;101789.19;;;23.82;nan
42111;BME280;27766;52.174;5.456;2023-06-26T12:29:21;101781.00;;;24.32;nan
42111;BME280;27766;52.174;5.456;2023-06-26T12:31:51;101772.41;;;24.93;nan
42111;BME280;27766;52.174;5.456;2023-06-26T12:34:27;101782.31;;;24.50;nan
42111;BME280;27766;52.174;5.456;2023-06-26T12:37:03;101779.88;;;24.77;nan
42111;BME280;27766;52.174;5.456;2023-06-26T12:40:03;101790.06;;;24.22;nan
42111;BME280;27766;52.174;5.456;2023-06-26T12:42:33;101798.16;;;23.75;nan
42111;BME280;27766;52.174;5.456;2023-06-26T12:45:13;101785.59;;;23.46;nan
42111;BME280;27766;52.174;5.456;2023-06-26T12:48:07;101795.88;;;23.99;nan
42111;BME280;27766;52.174;5.456;2023-06-26T12:50:44;101806.31;;;24.43;nan
42111;BME280;27766;52.174;5.456;2023-06-26T12:53:11;101800.31;;;23.98;nan
42111;BME280;27766;52.174;5.456;2023-06-26T12:55:40;101795.81;;;23.61;nan
42111;BME280;27766;52.174;5.456;2023-06-26T12:58:07;101810.47;;;23.76;nan
42111;BME280;27766;52.174;5.456;2023-06-26T13:00:40;101807.94;;;24.11;nan
42111;BME280;27766;52.174;5.456;2023-06-26T13:03:09;101806.50;;;24.71;nan
42111;BME280;27766;52.174;5.456;2023-06-26T13:05:37;101794.50;;;25.24;nan
42111;BME280;27766;52.174;5.456;2023-06-26T13:08:05;101804.41;;;24.12;nan
42111;BME280;27766;52.174;5.456;2023-06-26T13:10:32;101808.28;;;23.56;nan
42111;BME280;27766;52.174;5.456;2023-06-26T13:13:00;101800.63;;;23.83;nan
42111;BME280;27766;52.174;5.456;2023-06-26T13:15:28;101801.63;;;23.77;nan
42111;BME280;27766;52.174;5.456;2023-06-26T13:17:55;101809.53;;;23.36;nan
42111;BME280;27766;52.174;5.456;2023-06-26T13:20:22;101811.97;;;23.88;nan
42111;BME280;27766;52.174;5.456;2023-06-26T13:22:49;101817.91;;;23.57;nan
42111;BME280;27766;52.174;5.456;2023-06-26T13:25:17;101819.31;;;23.74;nan
42111;BME280;27766;52.174;5.456;2023-06-26T13:27:45;101826.50;;;24.09;nan
42111;BME280;27766;52.174;5.456;2023-06-26T13:30:13;101812.81;;;24.29;nan
42111;BME280;27766;52.174;5.456;2023-06-26T13:32:43;101815.66;;;24.56;nan
42111;BME280;27766;52.174;5.456;2023-06-26T13:35:10;101835.31;;;24.10;nan
42111;BME280;27766;52.174;5.456;2023-06-26T13:37:38;101830.22;;;24.38;nan